Time;durP1;ratioP1;P1;durP2;ratioP2;P2;SDS_P1;SDS_P2;PMS_P1;PMS_P2;Temp;Humidity;BMP_temperature;BMP_pressure;BME280_temperature;BME280_humidity;BME280_pressure;Samples;Min_cycle;Max_cycle;Signal;HPM_P1;HPM_P2
2021/11/23 00:01:22;;;;;;;;;20.00;17.75;;;;;;;;5009261;28;45798;-72
2021/11/23 00:03:47;;;;;;;;;24.00;21.00;;;;;;;;5006641;28;45495;-72
2021/11/23 00:06:13;;;;;;;;;22.25;16.00;;;;;;;;5006262;28;45515;-72
2021/11/23 00:08:38;;;;;;;;;23.00;18.33;;;;;;;;4998237;28;45391;-72
2021/11/23 00:11:03;;;;;;;;;25.25;19.00;;;;;;;;5009583;28;45368;-72
2021/11/23 00:13:28;;;;;;;;;27.33;20.00;;;;;;;;5008961;28;45679;-72
2021/11/23 00:15:54;;;;;;;;;21.33;18.00;;;;;;;;5001215;28;45412;-72
2021/11/23 00:18:19;;;;;;;;;24.00;17.33;;;;;;;;5013331;28;45560;-72
2021/11/23 00:20:45;;;;;;;;;23.00;21.33;;;;;;;;4999754;28;45348;-72
2021/11/23 00:23:11;;;;;;;;;26.25;18.00;;;;;;;;5003446;28;45483;-72
2021/11/23 00:25:37;;;;;;;;;24.25;20.25;;;;;;;;5003734;28;45550;-72
2021/11/23 00:28:02;;;;;;;;;25.00;20.00;;;;;;;;5001143;28;46147;-72
2021/11/23 00:30:29;;;;;;;;;27.00;14.67;;;;;;;;5014702;28;45510;-72
2021/11/23 00:32:56;;;;;;;;;25.75;18.00;;;;;;;;4999779;28;46240;-72
2021/11/23 00:35:22;;;;;;;;;26.75;22.00;;;;;;;;5003600;28;45381;-72
2021/11/23 00:37:48;;;;;;;;;27.25;18.50;;;;;;;;5005799;28;46257;-72
2021/11/23 00:40:13;;;;;;;;;21.50;18.75;;;;;;;;5003229;28;45487;-72
2021/11/23 00:42:39;;;;;;;;;23.50;17.00;;;;;;;;5001794;28;46056;-72
2021/11/23 00:45:05;;;;;;;;;22.67;18.00;;;;;;;;4998689;28;45279;-72
2021/11/23 00:47:30;;;;;;;;;24.75;22.00;;;;;;;;5001041;28;47453;-72
2021/11/23 00:49:55;;;;;;;;;20.00;15.33;;;;;;;;5002935;28;45542;-72
2021/11/23 00:52:21;;;;;;;;;19.33;19.33;;;;;;;;5006308;28;45403;-72
2021/11/23 00:54:46;;;;;;;;;19.67;17.00;;;;;;;;5010140;28;45682;-72
2021/11/23 00:57:11;;;;;;;;;23.75;16.75;;;;;;;;5007625;28;45468;-72
2021/11/23 00:59:38;;;;;;;;;21.00;16.33;;;;;;;;5000288;28;45539;-72
2021/11/23 01:02:03;;;;;;;;;23.50;18.00;;;;;;;;5001776;28;45453;-72
2021/11/23 01:04:28;;;;;;;;;20.33;18.00;;;;;;;;5002774;28;45460;-72
2021/11/23 01:06:53;;;;;;;;;21.33;18.00;;;;;;;;5009399;28;46112;-72
2021/11/23 01:09:19;;;;;;;;;15.00;13.33;;;;;;;;5010411;28;45652;-72
2021/11/23 01:11:44;;;;;;;;;19.33;14.33;;;;;;;;5008174;28;45360;-72
2021/11/23 01:14:09;;;;;;;;;24.67;17.00;;;;;;;;5002515;28;45537;-72
2021/11/23 01:16:35;;;;;;;;;20.67;17.33;;;;;;;;4998433;28;46052;-72
2021/11/23 01:19:00;;;;;;;;;22.00;19.75;;;;;;;;5007073;28;45366;-72
2021/11/23 01:21:26;;;;;;;;;26.67;18.67;;;;;;;;5005642;28;45285;-72
2021/11/23 01:23:53;;;;;;;;;24.67;21.33;;;;;;;;4996809;28;45421;-72
2021/11/23 01:26:18;;;;;;;;;24.00;17.50;;;;;;;;5008512;28;45466;-72
2021/11/23 01:28:44;;;;;;;;;17.67;12.00;;;;;;;;5002704;28;45724;-72
2021/11/23 01:31:09;;;;;;;;;13.67;13.33;;;;;;;;5003886;28;45403;-72
2021/11/23 01:33:34;;;;;;;;;28.00;15.00;;;;;;;;5000173;28;45383;-72
2021/11/23 01:35:59;;;;;;;;;20.67;18.00;;;;;;;;5008731;28;45532;-72
2021/11/23 01:38:24;;;;;;;;;18.00;14.33;;;;;;;;5001368;28;45444;-72
2021/11/23 01:40:50;;;;;;;;;20.00;18.33;;;;;;;;5001062;28;45477;-72
2021/11/23 01:43:15;;;;;;;;;18.00;15.25;;;;;;;;5002165;28;45483;-72
2021/11/23 01:45:41;;;;;;;;;18.00;15.00;;;;;;;;5008411;28;45413;-72
2021/11/23 01:48:07;;;;;;;;;20.50;17.25;;;;;;;;5009957;28;45453;-72
2021/11/23 01:50:33;;;;;;;;;17.75;13.75;;;;;;;;4999985;28;45498;-72
2021/11/23 01:53:00;;;;;;;;;19.75;14.50;;;;;;;;5002425;28;45301;-72
2021/11/23 01:55:26;;;;;;;;;21.25;18.25;;;;;;;;5002408;28;45408;-72
2021/11/23 01:57:51;;;;;;;;;21.00;15.25;;;;;;;;5002356;28;45369;-72
2021/11/23 02:00:17;;;;;;;;;22.75;18.75;;;;;;;;5000134;28;45489;-72
2021/11/23 02:02:43;;;;;;;;;20.75;17.25;;;;;;;;4999823;28;45419;-71
2021/11/23 02:05:08;;;;;;;;;26.75;20.75;;;;;;;;5005931;28;45521;-72
2021/11/23 02:07:33;;;;;;;;;23.50;20.25;;;;;;;;5006605;28;45424;-72
2021/11/23 02:09:59;;;;;;;;;27.67;20.00;;;;;;;;5004061;28;45450;-72
2021/11/23 02:12:25;;;;;;;;;23.00;20.75;;;;;;;;5003577;28;48980;-71
2021/11/23 02:14:51;;;;;;;;;17.00;15.25;;;;;;;;5001526;28;48490;-72
2021/11/23 02:17:16;;;;;;;;;17.50;16.50;;;;;;;;5007836;28;45498;-72
2021/11/23 02:19:45;;;;;;;;;26.33;20.00;;;;;;;;4999526;28;45408;-72
2021/11/23 02:22:10;;;;;;;;;23.75;18.00;;;;;;;;5001659;28;45615;-72
2021/11/23 02:24:35;;;;;;;;;19.00;13.33;;;;;;;;4990270;28;49714;-72
2021/11/23 02:27:01;;;;;;;;;35.75;20.00;;;;;;;;5009016;28;45305;-72
2021/11/23 02:29:26;;;;;;;;;19.75;17.00;;;;;;;;5009456;28;45474;-72
2021/11/23 02:31:51;;;;;;;;;21.00;18.67;;;;;;;;5005013;28;45279;-72
2021/11/23 02:34:16;;;;;;;;;23.33;19.00;;;;;;;;5006115;28;46173;-72
2021/11/23 02:36:42;;;;;;;;;23.67;18.33;;;;;;;;5016036;28;45299;-72
2021/11/23 02:39:07;;;;;;;;;25.50;19.00;;;;;;;;4999446;28;45549;-72
2021/11/23 02:41:32;;;;;;;;;21.00;20.67;;;;;;;;5011490;28;45443;-72
2021/11/23 02:43:58;;;;;;;;;18.25;17.00;;;;;;;;5003806;28;45499;-72
2021/11/23 02:46:24;;;;;;;;;27.50;22.50;;;;;;;;5005183;28;45463;-71
2021/11/23 02:48:49;;;;;;;;;25.75;19.75;;;;;;;;4984400;28;45479;-72
2021/11/23 02:53:40;;;;;;;;;25.33;21.00;;;;;;;;5002872;28;45374;-72
2021/11/23 02:56:05;;;;;;;;;21.00;19.25;;;;;;;;5005404;28;45313;-72
2021/11/23 02:58:31;;;;;;;;;24.00;21.67;;;;;;;;5004881;28;45595;-72
2021/11/23 03:00:57;;;;;;;;;24.50;18.50;;;;;;;;4984955;28;45694;-72
2021/11/23 03:03:23;;;;;;;;;21.00;17.25;;;;;;;;4996599;28;45993;-72
2021/11/23 03:05:48;;;;;;;;;29.25;21.00;;;;;;;;5012303;28;45419;-72
2021/11/23 03:08:14;;;;;;;;;24.50;18.25;;;;;;;;5007819;28;45605;-72
2021/11/23 03:10:39;;;;;;;;;28.25;22.75;;;;;;;;5006479;28;45240;-72
2021/11/23 03:13:04;;;;;;;;;26.00;21.33;;;;;;;;5007976;28;45498;-72
2021/11/23 03:15:30;;;;;;;;;25.75;18.25;;;;;;;;5003614;28;45657;-72
2021/11/23 03:17:55;;;;;;;;;23.00;17.75;;;;;;;;5004945;28;45771;-72
2021/11/23 03:20:21;;;;;;;;;21.50;15.50;;;;;;;;5002398;28;45577;-72
2021/11/23 03:22:47;;;;;;;;;20.75;18.75;;;;;;;;5004919;28;47064;-72
2021/11/23 03:25:13;;;;;;;;;21.25;16.00;;;;;;;;5003081;28;45542;-72
2021/11/23 03:27:38;;;;;;;;;24.25;20.25;;;;;;;;5010477;28;45822;-72
2021/11/23 03:30:05;;;;;;;;;17.50;14.50;;;;;;;;5014541;28;45359;-72
2021/11/23 03:32:30;;;;;;;;;22.50;18.00;;;;;;;;5002061;28;46453;-72
2021/11/23 03:34:55;;;;;;;;;21.67;15.33;;;;;;;;5004355;28;45377;-72
2021/11/23 03:37:22;;;;;;;;;21.00;18.00;;;;;;;;5004665;28;45313;-72
2021/11/23 03:39:48;;;;;;;;;22.75;15.25;;;;;;;;5003160;28;45818;-72
2021/11/23 03:42:14;;;;;;;;;27.50;20.00;;;;;;;;5009758;28;45519;-72
2021/11/23 03:44:39;;;;;;;;;21.00;17.00;;;;;;;;5001032;28;45306;-72
2021/11/23 03:47:06;;;;;;;;;16.67;13.00;;;;;;;;5004457;28;45336;-72
2021/11/23 03:49:31;;;;;;;;;19.50;17.50;;;;;;;;5005902;28;45478;-72
2021/11/23 03:51:57;;;;;;;;;28.25;14.75;;;;;;;;4999243;28;46119;-72
2021/11/23 03:54:22;;;;;;;;;21.00;17.75;;;;;;;;5005374;28;45830;-72
2021/11/23 03:56:48;;;;;;;;;19.25;18.25;;;;;;;;4999713;28;45432;-72
2021/11/23 03:59:13;;;;;;;;;21.67;17.00;;;;;;;;5010349;28;45387;-72
2021/11/23 04:01:39;;;;;;;;;15.25;13.50;;;;;;;;5010622;28;46473;-72
2021/11/23 04:04:04;;;;;;;;;19.67;17.33;;;;;;;;5012010;28;45439;-72
2021/11/23 04:06:29;;;;;;;;;19.33;18.00;;;;;;;;5000032;28;45584;-72
2021/11/23 04:08:54;;;;;;;;;20.33;19.33;;;;;;;;4999331;28;45398;-72
2021/11/23 04:11:19;;;;;;;;;18.00;15.67;;;;;;;;5009992;28;45469;-72
2021/11/23 04:13:45;;;;;;;;;23.00;18.67;;;;;;;;5010689;28;45383;-72
2021/11/23 04:16:10;;;;;;;;;18.75;16.75;;;;;;;;5012019;28;45373;-72
2021/11/23 04:18:36;;;;;;;;;24.50;14.75;;;;;;;;5001889;28;45461;-73
2021/11/23 04:21:02;;;;;;;;;19.50;18.50;;;;;;;;4999045;28;46006;-72
2021/11/23 04:23:27;;;;;;;;;19.50;14.00;;;;;;;;5010984;28;45324;-71
2021/11/23 04:25:52;;;;;;;;;21.00;18.00;;;;;;;;5003960;28;45563;-72
2021/11/23 04:28:17;;;;;;;;;21.00;15.00;;;;;;;;5003970;28;45442;-72
2021/11/23 04:30:42;;;;;;;;;19.33;13.00;;;;;;;;5002918;28;45567;-72
2021/11/23 04:33:13;;;;;;;;;16.33;15.33;;;;;;;;4998475;28;45419;-72
2021/11/23 04:35:38;;;;;;;;;15.25;14.50;;;;;;;;5000882;28;45420;-72
2021/11/23 04:38:03;;;;;;;;;23.67;18.00;;;;;;;;5001908;28;45561;-72
2021/11/23 04:40:28;;;;;;;;;28.00;16.33;;;;;;;;5005370;28;45590;-72
2021/11/23 04:42:53;;;;;;;;;21.00;15.67;;;;;;;;5009741;28;45447;-72
2021/11/23 04:45:19;;;;;;;;;22.33;17.33;;;;;;;;4999830;28;45517;-72
2021/11/23 04:47:44;;;;;;;;;18.67;14.00;;;;;;;;5010490;28;45328;-72
2021/11/23 04:50:11;;;;;;;;;22.25;16.50;;;;;;;;5004267;28;48113;-72
2021/11/23 04:52:36;;;;;;;;;20.50;16.75;;;;;;;;5003188;28;45829;-72
2021/11/23 04:55:02;;;;;;;;;21.25;16.00;;;;;;;;5003577;28;45466;-72
2021/11/23 04:57:27;;;;;;;;;19.00;14.00;;;;;;;;5011631;28;45447;-72
2021/11/23 04:59:52;;;;;;;;;25.00;17.00;;;;;;;;5005227;28;45691;-72
2021/11/23 05:02:18;;;;;;;;;23.67;18.33;;;;;;;;5009993;28;45412;-72
2021/11/23 05:04:44;;;;;;;;;16.75;15.25;;;;;;;;5006720;28;45424;-72
2021/11/23 05:07:09;;;;;;;;;23.75;14.00;;;;;;;;4997727;28;45407;-72
2021/11/23 05:09:34;;;;;;;;;19.00;14.33;;;;;;;;4996358;28;46030;-72
2021/11/23 05:11:59;;;;;;;;;19.33;14.00;;;;;;;;5003724;28;45404;-71
2021/11/23 05:14:25;;;;;;;;;23.00;15.67;;;;;;;;5000677;28;45506;-71
2021/11/23 05:16:50;;;;;;;;;16.00;16.00;;;;;;;;5007377;28;45449;-72
2021/11/23 05:19:15;;;;;;;;;17.33;13.00;;;;;;;;5008917;28;48165;-71
2021/11/23 05:21:40;;;;;;;;;17.00;13.00;;;;;;;;5002196;28;45234;-72
2021/11/23 05:24:06;;;;;;;;;17.50;12.75;;;;;;;;4996935;28;45476;-72
2021/11/23 05:26:31;;;;;;;;;19.25;13.00;;;;;;;;5002334;28;45602;-72
2021/11/23 05:28:56;;;;;;;;;17.25;11.00;;;;;;;;5009245;28;46057;-72
2021/11/23 05:31:21;;;;;;;;;13.00;10.67;;;;;;;;5004496;28;45392;-72
2021/11/23 05:33:47;;;;;;;;;16.67;11.00;;;;;;;;5002880;28;45385;-72
2021/11/23 05:36:12;;;;;;;;;16.00;11.00;;;;;;;;5000000;28;45525;-72
2021/11/23 05:38:38;;;;;;;;;17.33;14.00;;;;;;;;5009718;28;45975;-72
2021/11/23 05:41:03;;;;;;;;;18.50;13.75;;;;;;;;5008855;28;45857;-72
2021/11/23 05:43:28;;;;;;;;;16.00;10.50;;;;;;;;5009765;28;45725;-72
2021/11/23 05:45:53;;;;;;;;;22.33;15.33;;;;;;;;5008693;28;48005;-72
2021/11/23 05:48:19;;;;;;;;;21.00;13.67;;;;;;;;5007987;28;45466;-72
2021/11/23 05:50:44;;;;;;;;;25.67;15.33;;;;;;;;5011182;28;45382;-72
2021/11/23 05:53:09;;;;;;;;;22.00;17.33;;;;;;;;4998687;28;45456;-72
2021/11/23 05:55:34;;;;;;;;;21.33;17.67;;;;;;;;5003789;28;45482;-72
2021/11/23 05:58:00;;;;;;;;;17.00;11.75;;;;;;;;5008495;28;46110;-72
2021/11/23 06:00:25;;;;;;;;;17.25;15.75;;;;;;;;5002220;28;45415;-72
2021/11/23 06:02:51;;;;;;;;;14.67;13.33;;;;;;;;5008600;28;45475;-72
2021/11/23 06:05:16;;;;;;;;;14.25;14.00;;;;;;;;4999195;28;45475;-72
2021/11/23 06:07:41;;;;;;;;;18.33;14.00;;;;;;;;5001232;28;46870;-72
2021/11/23 06:10:07;;;;;;;;;19.33;16.33;;;;;;;;5014176;28;46022;-72
2021/11/23 06:12:32;;;;;;;;;22.50;16.50;;;;;;;;4996044;28;45432;-72
2021/11/23 06:14:59;;;;;;;;;20.25;14.75;;;;;;;;5011779;28;45754;-72
2021/11/23 06:17:25;;;;;;;;;19.00;16.00;;;;;;;;5008094;28;46014;-72
2021/11/23 06:19:50;;;;;;;;;14.00;11.50;;;;;;;;5012925;28;45430;-72
2021/11/23 06:22:15;;;;;;;;;13.33;13.00;;;;;;;;5001791;28;45446;-72
2021/11/23 06:24:40;;;;;;;;;17.50;14.00;;;;;;;;5004641;28;45383;-72
2021/11/23 06:27:06;;;;;;;;;21.25;14.00;;;;;;;;5009632;28;45852;-72
2021/11/23 06:29:31;;;;;;;;;20.00;17.33;;;;;;;;4999898;28;45511;-72
2021/11/23 06:31:58;;;;;;;;;16.33;14.33;;;;;;;;5002554;28;46064;-72
2021/11/23 06:34:23;;;;;;;;;19.25;13.00;;;;;;;;5007176;28;45541;-72
2021/11/23 06:36:48;;;;;;;;;21.67;13.33;;;;;;;;5016198;28;45419;-72
2021/11/23 06:39:13;;;;;;;;;14.00;11.67;;;;;;;;5000664;28;45305;-72
2021/11/23 06:41:39;;;;;;;;;14.33;14.00;;;;;;;;5002330;28;45444;-72
2021/11/23 06:44:04;;;;;;;;;20.33;15.33;;;;;;;;5004640;28;45280;-71
2021/11/23 06:46:29;;;;;;;;;13.25;11.50;;;;;;;;5004967;28;46088;-72
2021/11/23 06:48:55;;;;;;;;;13.75;11.75;;;;;;;;5005414;28;45443;-72
2021/11/23 06:51:20;;;;;;;;;11.75;10.50;;;;;;;;5001468;28;45425;-70
2021/11/23 06:53:45;;;;;;;;;16.00;11.67;;;;;;;;5000384;28;45549;-72
2021/11/23 06:56:11;;;;;;;;;15.75;13.50;;;;;;;;5010541;28;45699;-72
2021/11/23 06:58:36;;;;;;;;;16.00;10.67;;;;;;;;5007427;28;45661;-73
2021/11/23 07:01:01;;;;;;;;;13.00;11.00;;;;;;;;5007334;28;45486;-71
2021/11/23 07:03:26;;;;;;;;;16.67;12.33;;;;;;;;5001874;28;45440;-71
2021/11/23 07:05:51;;;;;;;;;13.33;11.00;;;;;;;;4999717;28;45602;-71
2021/11/23 07:08:17;;;;;;;;;13.00;10.67;;;;;;;;5008471;28;45368;-71
2021/11/23 07:10:42;;;;;;;;;17.00;14.00;;;;;;;;5005681;28;45610;-70
2021/11/23 07:13:08;;;;;;;;;7.75;7.75;;;;;;;;5006508;28;45597;-71
2021/11/23 07:15:33;;;;;;;;;8.67;8.00;;;;;;;;5012368;28;46291;-71
2021/11/23 07:17:58;;;;;;;;;12.33;9.33;;;;;;;;5010385;28;45379;-71
2021/11/23 07:20:23;;;;;;;;;13.00;8.00;;;;;;;;5003305;28;46917;-71
2021/11/23 07:22:48;;;;;;;;;15.33;10.00;;;;;;;;5004480;28;45387;-72
2021/11/23 07:25:14;;;;;;;;;13.33;13.00;;;;;;;;5004526;28;45332;-72
2021/11/23 07:27:39;;;;;;;;;13.00;10.00;;;;;;;;4999854;28;45458;-73
2021/11/23 07:30:05;;;;;;;;;10.50;8.00;;;;;;;;5005197;28;45513;-72
2021/11/23 07:32:30;;;;;;;;;12.00;10.00;;;;;;;;5002649;28;45469;-73
2021/11/23 07:34:56;;;;;;;;;15.50;10.00;;;;;;;;5004503;28;46569;-72
2021/11/23 07:37:21;;;;;;;;;11.67;10.33;;;;;;;;5004416;28;45486;-72
2021/11/23 07:39:47;;;;;;;;;10.33;9.67;;;;;;;;5016221;28;45558;-73
2021/11/23 07:42:13;;;;;;;;;8.00;8.00;;;;;;;;4999094;28;45471;-72
2021/11/23 07:44:38;;;;;;;;;8.00;7.00;;;;;;;;5001055;28;46024;-72
2021/11/23 07:47:03;;;;;;;;;16.00;9.33;;;;;;;;5004715;28;45340;-72
2021/11/23 07:49:28;;;;;;;;;7.50;7.50;;;;;;;;5005542;28;45426;-72
2021/11/23 07:51:53;;;;;;;;;14.00;12.67;;;;;;;;5010721;28;45475;-72
2021/11/23 07:54:19;;;;;;;;;20.00;18.33;;;;;;;;4981179;28;47291;-72
2021/11/23 07:56:44;;;;;;;;;10.67;8.67;;;;;;;;5008864;28;45664;-72
2021/11/23 07:59:10;;;;;;;;;14.67;10.67;;;;;;;;5004244;28;45411;-72
2021/11/23 08:01:36;;;;;;;;;14.50;11.00;;;;;;;;5007299;28;45347;-72
2021/11/23 08:04:01;;;;;;;;;9.50;7.00;;;;;;;;5000267;28;45449;-72
2021/11/23 08:06:27;;;;;;;;;11.67;10.00;;;;;;;;5015299;28;45482;-72
2021/11/23 08:08:52;;;;;;;;;13.00;7.50;;;;;;;;4999107;28;45467;-72
2021/11/23 08:11:17;;;;;;;;;18.00;18.00;;;;;;;;5002833;28;45403;-72
2021/11/23 08:13:42;;;;;;;;;9.25;7.75;;;;;;;;5003601;28;46200;-72
2021/11/23 08:16:07;;;;;;;;;10.33;10.33;;;;;;;;5002104;28;45476;-72
2021/11/23 08:18:34;;;;;;;;;7.67;4.33;;;;;;;;5003792;28;45332;-72
2021/11/23 08:20:59;;;;;;;;;4.75;4.75;;;;;;;;4998531;28;45401;-72
2021/11/23 08:23:25;;;;;;;;;11.25;9.75;;;;;;;;5003213;28;46047;-72
2021/11/23 08:25:51;;;;;;;;;6.50;6.50;;;;;;;;5004659;28;45308;-72
2021/11/23 08:28:18;;;;;;;;;8.00;4.25;;;;;;;;5004085;28;45462;-72
2021/11/23 08:30:44;;;;;;;;;12.00;5.75;;;;;;;;4998414;28;45505;-72
2021/11/23 08:33:09;;;;;;;;;1.25;1.25;;;;;;;;5013478;28;47100;-71
2021/11/23 08:35:34;;;;;;;;;10.75;7.00;;;;;;;;5001226;28;45433;-72
2021/11/23 08:37:59;;;;;;;;;10.33;6.67;;;;;;;;5003418;28;45336;-72
2021/11/23 08:40:24;;;;;;;;;12.67;11.00;;;;;;;;5002927;28;45488;-72
2021/11/23 08:42:51;;;;;;;;;10.00;6.00;;;;;;;;5003191;28;45448;-72
2021/11/23 08:45:16;;;;;;;;;10.25;10.25;;;;;;;;4998926;28;45530;-72
2021/11/23 08:47:42;;;;;;;;;16.25;16.25;;;;;;;;5011290;28;45435;-71
2021/11/23 08:50:08;;;;;;;;;11.00;9.00;;;;;;;;5010341;28;45245;-71
2021/11/23 08:52:33;;;;;;;;;9.50;6.00;;;;;;;;5008099;28;45349;-71
2021/11/23 08:54:58;;;;;;;;;14.00;7.75;;;;;;;;4999654;28;45497;-72
2021/11/23 08:57:24;;;;;;;;;8.67;6.00;;;;;;;;5014483;28;45477;-72
2021/11/23 08:59:51;;;;;;;;;6.25;6.25;;;;;;;;5002320;28;45410;-72
2021/11/23 09:02:17;;;;;;;;;6.00;6.00;;;;;;;;5009851;28;46214;-72
2021/11/23 09:04:42;;;;;;;;;8.50;6.75;;;;;;;;5010492;28;45446;-72
2021/11/23 09:07:09;;;;;;;;;8.33;6.33;;;;;;;;5011646;28;45518;-72
2021/11/23 09:09:35;;;;;;;;;7.25;7.25;;;;;;;;5000316;28;45494;-72
2021/11/23 09:12:03;;;;;;;;;7.50;6.50;;;;;;;;4998765;28;45472;-72
2021/11/23 09:14:29;;;;;;;;;10.50;7.00;;;;;;;;5012911;28;45796;-72
2021/11/23 09:16:54;;;;;;;;;9.25;6.25;;;;;;;;5009576;28;45447;-72
2021/11/23 09:19:20;;;;;;;;;5.50;5.50;;;;;;;;5003072;28;45527;-72
2021/11/23 09:21:45;;;;;;;;;5.00;4.00;;;;;;;;5002850;28;45587;-73
2021/11/23 09:24:11;;;;;;;;;5.50;5.50;;;;;;;;4996160;28;45389;-72
2021/11/23 09:26:36;;;;;;;;;4.00;4.00;;;;;;;;5000417;28;45415;-72
2021/11/23 09:29:02;;;;;;;;;4.75;4.00;;;;;;;;5004358;28;45408;-73
2021/11/23 09:31:27;;;;;;;;;5.75;4.00;;;;;;;;5008551;28;46035;-72
2021/11/23 09:33:53;;;;;;;;;5.00;4.33;;;;;;;;4998866;28;45400;-72
2021/11/23 09:36:18;;;;;;;;;5.50;3.25;;;;;;;;5002524;28;45498;-72
2021/11/23 09:38:43;;;;;;;;;4.00;4.00;;;;;;;;4998822;28;45465;-72
2021/11/23 09:41:09;;;;;;;;;4.00;4.00;;;;;;;;5003576;28;45456;-72
2021/11/23 09:43:36;;;;;;;;;4.50;3.50;;;;;;;;5006069;28;45463;-72
2021/11/23 09:46:01;;;;;;;;;4.00;4.00;;;;;;;;4986849;28;45387;-72
2021/11/23 09:48:26;;;;;;;;;5.25;4.75;;;;;;;;5003164;28;45296;-73
2021/11/23 09:50:52;;;;;;;;;3.25;3.00;;;;;;;;5002063;28;46148;-72
2021/11/23 09:53:18;;;;;;;;;4.75;3.50;;;;;;;;5005214;28;45664;-72
2021/11/23 09:55:44;;;;;;;;;4.25;4.25;;;;;;;;5006008;28;45306;-72
2021/11/23 09:58:10;;;;;;;;;4.00;4.00;;;;;;;;5005978;28;45363;-72
2021/11/23 10:00:39;;;;;;;;;2.75;2.75;;;;;;;;5009314;28;45542;-72
2021/11/23 10:03:12;;;;;;;;;2.75;2.75;;;;;;;;5001063;28;45377;-72
2021/11/23 10:05:40;;;;;;;;;4.75;4.00;;;;;;;;5012286;28;45439;-72
2021/11/23 10:08:15;;;;;;;;;4.75;4.75;;;;;;;;5005881;28;45371;-72
2021/11/23 10:10:42;;;;;;;;;6.25;6.00;;;;;;;;5005594;28;46020;-72
2021/11/23 10:13:08;;;;;;;;;3.25;3.25;;;;;;;;5003776;28;45833;-72
2021/11/23 10:15:41;;;;;;;;;7.50;4.00;;;;;;;;5017560;28;45387;-72
2021/11/23 10:18:17;;;;;;;;;3.00;2.00;;;;;;;;5000982;28;45418;-72
2021/11/23 10:20:45;;;;;;;;;2.75;2.00;;;;;;;;4995420;28;46421;-72
2021/11/23 10:23:12;;;;;;;;;7.00;3.00;;;;;;;;4996655;28;45712;-72
2021/11/23 10:25:38;;;;;;;;;2.00;2.00;;;;;;;;5007719;28;45530;-73
2021/11/23 10:28:04;;;;;;;;;3.25;2.75;;;;;;;;5014762;28;45482;-72
2021/11/23 10:30:29;;;;;;;;;5.75;3.00;;;;;;;;5002605;28;45312;-72
2021/11/23 10:32:54;;;;;;;;;6.75;4.25;;;;;;;;5000722;28;45423;-72
2021/11/23 10:35:21;;;;;;;;;7.67;3.00;;;;;;;;5005135;28;45481;-72
2021/11/23 10:37:47;;;;;;;;;4.00;2.00;;;;;;;;5004752;28;45604;-72
2021/11/23 10:40:17;;;;;;;;;2.00;1.50;;;;;;;;5005226;28;45376;-72
2021/11/23 10:42:49;;;;;;;;;8.00;4.50;;;;;;;;4983611;28;45389;-72
2021/11/23 10:45:14;;;;;;;;;8.25;2.25;;;;;;;;4981905;28;45362;-71
2021/11/23 10:47:41;;;;;;;;;2.00;2.00;;;;;;;;5012657;28;45320;-72
2021/11/23 10:50:09;;;;;;;;;2.00;2.00;;;;;;;;5005427;28;45474;-73
2021/11/23 10:52:36;;;;;;;;;5.50;1.50;;;;;;;;5006371;28;46004;-72
2021/11/23 10:55:05;;;;;;;;;2.75;2.25;;;;;;;;5007186;28;45525;-72
2021/11/23 10:57:37;;;;;;;;;4.75;3.00;;;;;;;;5002436;28;45581;-72
2021/11/23 11:00:03;;;;;;;;;3.00;1.75;;;;;;;;5006566;28;46047;-72
2021/11/23 11:02:28;;;;;;;;;2.25;2.25;;;;;;;;5002759;28;45881;-72
2021/11/23 11:04:54;;;;;;;;;1.33;1.33;;;;;;;;5008972;28;45440;-71
2021/11/23 11:07:20;;;;;;;;;1.00;1.00;;;;;;;;5012230;28;45525;-72
2021/11/23 11:09:45;;;;;;;;;2.75;2.00;;;;;;;;5003651;28;46150;-72
2021/11/23 11:12:12;;;;;;;;;0.25;0.25;;;;;;;;5000279;28;45821;-72
2021/11/23 11:14:38;;;;;;;;;1.00;1.00;;;;;;;;5002400;28;45403;-72
2021/11/23 11:17:04;;;;;;;;;3.00;1.50;;;;;;;;5004637;28;45380;-72
2021/11/23 11:19:50;;;;;;;;;1.00;1.00;;;;;;;;5004322;28;45991;-72
2021/11/23 11:22:17;;;;;;;;;3.00;2.00;;;;;;;;5004318;28;45381;-72
2021/11/23 11:25:06;;;;;;;;;1.50;1.00;;;;;;;;5002302;28;45510;-72
2021/11/23 11:27:31;;;;;;;;;4.00;2.00;;;;;;;;5002544;28;45367;-72
2021/11/23 11:30:15;;;;;;;;;3.25;3.25;;;;;;;;5005279;28;45907;-72
2021/11/23 11:32:40;;;;;;;;;1.50;1.50;;;;;;;;5015804;28;46128;-71
2021/11/23 11:35:23;;;;;;;;;2.00;2.00;;;;;;;;5011201;28;45631;-71
2021/11/23 11:37:49;;;;;;;;;5.50;3.00;;;;;;;;5007503;28;45566;-72
2021/11/23 11:40:25;;;;;;;;;2.00;2.00;;;;;;;;5004117;28;45671;-72
2021/11/23 11:42:51;;;;;;;;;3.00;1.75;;;;;;;;4983605;28;45748;-72
2021/11/23 11:45:17;;;;;;;;;0.50;0.50;;;;;;;;5000218;28;45609;-72
2021/11/23 11:47:45;;;;;;;;;3.00;1.50;;;;;;;;5011813;28;45338;-72
2021/11/23 11:50:16;;;;;;;;;2.50;1.25;;;;;;;;5010811;28;45414;-72
2021/11/23 11:53:03;;;;;;;;;4.00;1.50;;;;;;;;5008104;28;45577;-72
2021/11/23 11:55:32;;;;;;;;;1.25;1.00;;;;;;;;5006556;28;45718;-72
2021/11/23 11:57:59;;;;;;;;;2.50;1.50;;;;;;;;5014259;28;45547;-71
2021/11/23 12:00:30;;;;;;;;;2.50;2.25;;;;;;;;5005421;28;46162;-72
2021/11/23 12:03:00;;;;;;;;;2.00;1.75;;;;;;;;4999044;28;45405;-72
2021/11/23 12:05:45;;;;;;;;;3.00;2.00;;;;;;;;5002548;28;45484;-72
2021/11/23 12:08:25;;;;;;;;;2.00;2.00;;;;;;;;5003888;28;45629;-72
2021/11/23 12:10:50;;;;;;;;;1.50;1.50;;;;;;;;5007962;28;46946;-72
2021/11/23 12:13:22;;;;;;;;;2.00;2.00;;;;;;;;5011322;28;45313;-72
2021/11/23 12:15:59;;;;;;;;;0.25;0.25;;;;;;;;5003684;28;45503;-72
2021/11/23 12:18:27;;;;;;;;;1.25;1.00;;;;;;;;4999977;28;45532;-72
2021/11/23 12:21:01;;;;;;;;;1.50;1.50;;;;;;;;4999262;28;45974;-72
2021/11/23 12:23:29;;;;;;;;;2.00;2.00;;;;;;;;5003068;28;45364;-72
2021/11/23 12:25:54;;;;;;;;;3.25;1.50;;;;;;;;5001706;28;45522;-72
2021/11/23 12:28:20;;;;;;;;;1.00;1.00;;;;;;;;5003620;28;45453;-72
2021/11/23 12:30:45;;;;;;;;;1.25;1.25;;;;;;;;5007375;28;46120;-72
2021/11/23 12:33:10;;;;;;;;;4.00;2.67;;;;;;;;4998373;28;45473;-72
2021/11/23 12:35:39;;;;;;;;;1.00;1.00;;;;;;;;5000918;28;45358;-72
2021/11/23 12:38:04;;;;;;;;;2.00;2.00;;;;;;;;4993090;28;45535;-71
2021/11/23 12:40:30;;;;;;;;;1.25;0.25;;;;;;;;5003317;28;46247;-72
2021/11/23 12:42:59;;;;;;;;;1.00;1.00;;;;;;;;5003102;28;45431;-73
2021/11/23 12:45:33;;;;;;;;;19.50;14.25;;;;;;;;5000265;28;45550;-71
2021/11/23 12:47:59;;;;;;;;;1.50;1.00;;;;;;;;4998509;28;45473;-72
2021/11/23 12:50:27;;;;;;;;;2.50;2.00;;;;;;;;5010892;28;46163;-72
2021/11/23 12:53:00;;;;;;;;;0.00;0.00;;;;;;;;5005653;28;45485;-71
2021/11/23 12:55:25;;;;;;;;;0.25;0.25;;;;;;;;5003265;28;45696;-72
2021/11/23 12:57:52;;;;;;;;;2.00;2.00;;;;;;;;5013930;28;45563;-72
2021/11/23 13:00:19;;;;;;;;;9.75;7.75;;;;;;;;5002316;28;46214;-72
2021/11/23 13:02:48;;;;;;;;;1.00;0.25;;;;;;;;4998756;28;45360;-72
2021/11/23 13:05:18;;;;;;;;;2.50;1.00;;;;;;;;5010221;28;45360;-72
2021/11/23 13:07:45;;;;;;;;;2.75;1.00;;;;;;;;5006321;28;45484;-72
2021/11/23 13:10:11;;;;;;;;;2.00;2.00;;;;;;;;5003313;28;47265;-72
2021/11/23 13:12:38;;;;;;;;;3.50;1.00;;;;;;;;5001496;28;45305;-72
2021/11/23 13:15:14;;;;;;;;;0.25;0.25;;;;;;;;4998256;28;45605;-72
2021/11/23 13:17:40;;;;;;;;;0.00;0.00;;;;;;;;4999311;28;45408;-72
2021/11/23 13:20:06;;;;;;;;;2.00;1.25;;;;;;;;5003252;28;45895;-72
2021/11/23 13:22:42;;;;;;;;;0.00;0.00;;;;;;;;5002661;28;45522;-72
2021/11/23 13:25:08;;;;;;;;;4.00;2.75;;;;;;;;5004024;28;45550;-72
2021/11/23 13:27:33;;;;;;;;;2.00;1.00;;;;;;;;4998507;28;45424;-71
2021/11/23 13:30:01;;;;;;;;;2.50;1.00;;;;;;;;5011662;28;45757;-72
2021/11/23 13:32:26;;;;;;;;;3.25;0.00;;;;;;;;5012479;28;45852;-72
2021/11/23 13:35:10;;;;;;;;;2.00;0.00;;;;;;;;5009924;28;45582;-72
2021/11/23 13:37:40;;;;;;;;;3.00;1.00;;;;;;;;5007423;28;45538;-72
2021/11/23 13:40:21;;;;;;;;;2.50;1.75;;;;;;;;5002584;28;46235;-72
2021/11/23 13:42:46;;;;;;;;;1.00;1.00;;;;;;;;5002839;28;45501;-72
2021/11/23 13:45:12;;;;;;;;;0.33;0.33;;;;;;;;4997710;28;45384;-72
2021/11/23 13:47:37;;;;;;;;;0.75;0.75;;;;;;;;4999318;28;45463;-72
2021/11/23 13:50:04;;;;;;;;;0.00;0.00;;;;;;;;5002441;28;46232;-72
2021/11/23 13:52:32;;;;;;;;;0.00;0.00;;;;;;;;5002742;28;45933;-72
2021/11/23 13:54:59;;;;;;;;;2.00;2.00;;;;;;;;5000473;28;45411;-72
2021/11/23 13:57:26;;;;;;;;;2.00;1.25;;;;;;;;5002602;28;45404;-73
2021/11/23 13:59:53;;;;;;;;;0.00;0.00;;;;;;;;5000023;28;45660;-72
2021/11/23 14:02:18;;;;;;;;;0.00;0.00;;;;;;;;5000636;28;45444;-72
2021/11/23 14:04:44;;;;;;;;;0.00;0.00;;;;;;;;5005668;28;45494;-72
2021/11/23 14:07:10;;;;;;;;;1.00;0.00;;;;;;;;5009196;28;45321;-72
2021/11/23 14:09:45;;;;;;;;;0.25;0.25;;;;;;;;5013245;28;46864;-72
2021/11/23 14:12:16;;;;;;;;;1.00;1.00;;;;;;;;4997591;28;45342;-72
2021/11/23 14:14:56;;;;;;;;;0.00;0.00;;;;;;;;5009782;28;45433;-72
2021/11/23 14:17:22;;;;;;;;;1.00;0.25;;;;;;;;5000655;28;45418;-72
2021/11/23 14:20:05;;;;;;;;;1.00;1.00;;;;;;;;5006214;28;45474;-72
2021/11/23 14:22:40;;;;;;;;;0.25;0.25;;;;;;;;5007027;28;45871;-72
2021/11/23 14:25:19;;;;;;;;;0.00;0.00;;;;;;;;5002813;28;45438;-72
2021/11/23 14:28:04;;;;;;;;;6.50;5.00;;;;;;;;5011486;28;45490;-73